createdAt,value
2022-09-06T00:00:26.653Z,22.10
2022-09-06T00:02:54.123Z,20.95
2022-09-06T00:05:21.758Z,21.77
2022-09-06T00:07:48.901Z,21.57
2022-09-06T00:10:16.204Z,21.97
2022-09-06T00:12:43.300Z,21.52
2022-09-06T00:15:11.075Z,21.92
2022-09-06T00:17:38.063Z,22.16
2022-09-06T00:20:09.304Z,21.54
2022-09-06T00:22:37.617Z,21.61
2022-09-06T00:25:06.359Z,21.82
2022-09-06T00:27:34.551Z,21.17
2022-09-06T00:30:01.687Z,21.34
2022-09-06T00:32:28.876Z,22.15
2022-09-06T00:34:55.784Z,21.07
2022-09-06T00:37:22.961Z,20.88
2022-09-06T00:39:49.956Z,21.64
2022-09-06T00:42:17.076Z,20.83
2022-09-06T00:44:44.176Z,21.66
2022-09-06T00:47:11.182Z,21.79
2022-09-06T00:49:49.035Z,20.15
2022-09-06T00:52:18.989Z,21.31
2022-09-06T00:54:48.547Z,21.48
2022-09-06T00:57:17.582Z,21.66
2022-09-06T00:59:47.091Z,21.44
2022-09-06T01:02:15.097Z,21.26
2022-09-06T01:04:44.537Z,20.17
2022-09-06T01:07:37.187Z,21.08
2022-09-06T01:10:24.309Z,21.31
2022-09-06T01:13:47.584Z,21.03
2022-09-06T01:16:51.043Z,21.15
2022-09-06T01:19:49.730Z,20.89
2022-09-06T01:23:06.270Z,20.73
2022-09-06T01:26:00.133Z,21.16
2022-09-06T01:28:27.132Z,21.30
2022-09-06T01:31:25.432Z,21.33
2022-09-06T01:34:07.625Z,20.94
2022-09-06T01:37:10.226Z,21.26
2022-09-06T01:39:40.255Z,21.60
2022-09-06T01:42:32.845Z,21.82
2022-09-06T01:45:12.566Z,21.67
2022-09-06T01:48:27.668Z,21.85
2022-09-06T01:51:26.417Z,21.69
2022-09-06T01:54:22.136Z,21.46
2022-09-06T01:57:22.031Z,21.66
2022-09-06T02:00:09.340Z,21.71
2022-09-06T02:03:00.400Z,21.46
2022-09-06T02:05:55.986Z,21.46
2022-09-06T02:08:35.525Z,21.88
2022-09-06T02:11:07.656Z,21.89
2022-09-06T02:13:56.552Z,22.12
2022-09-06T02:16:27.396Z,22.11
2022-09-06T02:19:12.304Z,22.14
2022-09-06T02:21:45.955Z,21.98
2022-09-06T02:24:22.437Z,21.83
2022-09-06T02:26:49.984Z,21.18
2022-09-06T02:29:17.655Z,21.51
2022-09-06T02:32:08.738Z,21.72
2022-09-06T02:34:40.028Z,21.44
2022-09-06T02:37:08.478Z,21.60
2022-09-06T02:39:35.605Z,21.51
2022-09-06T02:42:02.855Z,21.29
2022-09-06T02:44:29.993Z,21.90
2022-09-06T02:46:57.390Z,22.05
2022-09-06T02:49:24.819Z,22.09
2022-09-06T02:51:52.060Z,22.38
2022-09-06T02:54:18.955Z,22.46
2022-09-06T02:56:50.206Z,22.76
2022-09-06T02:59:19.378Z,22.82
2022-09-06T03:01:46.447Z,23.02
2022-09-06T03:04:13.592Z,23.06
2022-09-06T03:06:40.581Z,22.78
2022-09-06T03:09:08.999Z,23.19
2022-09-06T03:11:37.042Z,22.78
2022-09-06T03:14:04.128Z,22.75
2022-09-06T03:16:31.420Z,22.46
2022-09-06T03:18:58.514Z,22.79
2022-09-06T03:21:25.592Z,22.65
2022-09-06T03:23:52.943Z,22.49
2022-09-06T03:26:20.001Z,22.65
2022-09-06T03:28:46.917Z,22.32
2022-09-06T03:31:14.291Z,22.52
2022-09-06T03:33:41.493Z,21.99
2022-09-06T03:36:08.862Z,21.03
2022-09-06T03:38:36.044Z,21.81
2022-09-06T03:41:03.200Z,21.32
2022-09-06T03:43:32.053Z,21.56
2022-09-06T03:45:59.101Z,21.45
2022-09-06T03:48:29.555Z,21.59
2022-09-06T03:50:58.682Z,21.69
2022-09-06T03:53:27.978Z,21.87
2022-09-06T03:55:57.828Z,22.04
2022-09-06T03:58:31.228Z,21.95
2022-09-06T04:01:05.057Z,22.08
2022-09-06T04:03:33.200Z,21.51
2022-09-06T04:06:00.309Z,21.74
2022-09-06T04:08:28.022Z,21.95
2022-09-06T04:10:56.892Z,21.81
2022-09-06T04:13:25.938Z,21.55
2022-09-06T04:15:53.210Z,21.91
2022-09-06T04:18:20.839Z,22.04
2022-09-06T04:20:53.868Z,21.59
2022-09-06T04:23:21.938Z,21.73
2022-09-06T04:25:51.565Z,21.84
2022-09-06T04:28:19.392Z,21.71
2022-09-06T04:31:03.913Z,21.92
2022-09-06T04:33:34.272Z,21.92
2022-09-06T04:36:04.620Z,22.15
2022-09-06T04:38:44.279Z,21.99
2022-09-06T04:41:15.650Z,21.75
2022-09-06T04:43:43.281Z,21.69
2022-09-06T04:46:20.690Z,21.34
2022-09-06T04:48:49.316Z,21.50
2022-09-06T04:51:16.652Z,20.99
2022-09-06T04:53:43.748Z,21.46
2022-09-06T04:56:23.672Z,21.66
2022-09-06T04:58:52.987Z,21.43
2022-09-06T05:01:21.035Z,20.98
2022-09-06T05:03:48.409Z,20.65
2022-09-06T05:06:24.384Z,20.89
2022-09-06T05:08:51.630Z,20.71
2022-09-06T05:11:19.952Z,20.94
2022-09-06T05:13:47.696Z,21.06
2022-09-06T05:16:15.160Z,20.80
2022-09-06T05:18:42.455Z,20.47
2022-09-06T05:21:09.626Z,20.67
2022-09-06T05:23:36.967Z,20.79
2022-09-06T05:26:04.268Z,20.88
2022-09-06T05:28:31.323Z,21.20
2022-09-06T05:31:12.481Z,21.18
2022-09-06T05:33:39.515Z,21.47
2022-09-06T05:36:07.257Z,21.64
2022-09-06T05:38:34.395Z,21.97
2022-09-06T05:41:01.495Z,22.03
2022-09-06T05:43:28.604Z,22.05
2022-09-06T05:45:55.634Z,22.24
2022-09-06T05:48:22.795Z,22.70
2022-09-06T05:51:05.436Z,22.79
2022-09-06T05:53:42.260Z,23.02
2022-09-06T05:56:11.013Z,23.80
2022-09-06T05:58:39.100Z,23.02
2022-09-06T06:01:16.687Z,23.31
2022-09-06T06:03:57.973Z,23.99
2022-09-06T06:06:28.875Z,23.62
2022-09-06T06:08:56.449Z,23.82
2022-09-06T06:11:26.048Z,23.89
2022-09-06T06:13:53.450Z,23.83
2022-09-06T06:16:22.510Z,23.01
2022-09-06T06:18:52.292Z,23.28
2022-09-06T06:21:26.031Z,23.08
2022-09-06T06:23:56.800Z,23.18
2022-09-06T06:26:24.426Z,23.22
2022-09-06T06:28:52.301Z,23.15
2022-09-06T06:31:22.297Z,23.15
2022-09-06T06:33:49.925Z,23.15
2022-09-06T06:36:16.723Z,23.10
2022-09-06T06:38:46.336Z,23.15
2022-09-06T06:41:16.434Z,22.79
2022-09-06T06:43:43.585Z,23.01
2022-09-06T06:46:14.857Z,22.89
2022-09-06T06:48:46.347Z,22.91
2022-09-06T06:51:19.841Z,22.98
2022-09-06T06:53:49.168Z,23.05
2022-09-06T06:56:32.593Z,22.78
2022-09-06T06:59:04.482Z,22.76
2022-09-06T07:01:34.561Z,22.46
2022-09-06T07:04:01.850Z,23.11
2022-09-06T07:09:19.621Z,23.49
2022-09-06T07:11:48.903Z,23.37
2022-09-06T07:14:17.487Z,23.29
2022-09-06T07:16:45.457Z,23.30
2022-09-06T07:22:04.432Z,23.10
2022-09-06T07:24:32.909Z,23.11
2022-09-06T07:29:47.281Z,23.33
2022-09-06T07:32:14.168Z,23.01
2022-09-06T07:34:41.794Z,23.32
2022-09-06T07:37:08.747Z,23.07
2022-09-06T07:39:37.057Z,22.72
2022-09-06T07:42:04.786Z,22.47
2022-09-06T07:44:32.510Z,23.04
2022-09-06T07:55:24.525Z,22.55
2022-09-06T07:57:51.441Z,22.73
2022-09-06T08:00:18.731Z,22.24
2022-09-06T08:02:45.701Z,22.05
2022-09-06T08:10:51.428Z,23.83
2022-09-06T08:13:18.617Z,24.03
2022-09-06T08:15:45.531Z,24.21
2022-09-06T08:18:12.633Z,23.84
2022-09-06T08:20:39.765Z,24.27
2022-09-06T08:23:10.432Z,24.35
2022-09-06T08:25:37.483Z,23.81
2022-09-06T08:28:04.743Z,23.60
2022-09-06T08:30:33.039Z,23.54
2022-09-06T08:33:00.299Z,23.75
2022-09-06T08:35:27.541Z,23.65
2022-09-06T08:37:57.402Z,23.78
2022-09-06T08:40:25.565Z,23.81
2022-09-06T08:42:52.523Z,23.79
2022-09-06T08:45:19.550Z,23.32
2022-09-06T08:47:46.632Z,23.95
2022-09-06T08:50:13.563Z,23.94
2022-09-06T08:53:18.084Z,23.62
2022-09-06T08:56:17.356Z,23.83
2022-09-06T08:59:05.428Z,24.14
2022-09-06T09:02:05.947Z,24.98
2022-09-06T09:04:35.064Z,24.99
2022-09-06T09:07:37.083Z,25.00
2022-09-06T09:10:37.977Z,25.18
2022-09-06T09:13:08.006Z,25.71
2022-09-06T09:15:40.260Z,26.15
2022-09-06T09:18:08.275Z,26.49
2022-09-06T09:20:37.250Z,26.97
2022-09-06T09:23:04.393Z,26.84
2022-09-06T09:25:34.377Z,27.06
2022-09-06T09:28:02.098Z,27.26
2022-09-06T09:30:49.553Z,27.91
2022-09-06T09:33:39.057Z,27.67
2022-09-06T09:36:11.345Z,27.83
2022-09-06T09:38:46.661Z,28.00
2022-09-06T09:41:38.414Z,28.06
2022-09-06T09:44:19.731Z,27.85
2022-09-06T09:46:46.872Z,27.43
2022-09-06T09:49:21.720Z,27.26
2022-09-06T09:52:11.748Z,27.10
2022-09-06T09:54:44.665Z,27.09
2022-09-06T09:57:17.881Z,26.98
2022-09-06T09:59:59.072Z,27.45
2022-09-06T10:02:36.243Z,26.83
2022-09-06T10:05:16.118Z,26.96
2022-09-06T10:07:49.860Z,27.09
2022-09-06T10:10:27.806Z,27.01
2022-09-06T10:13:16.424Z,27.06
2022-09-06T10:15:43.806Z,27.33
2022-09-06T10:18:31.237Z,27.19
2022-09-06T10:21:03.771Z,27.76
2022-09-06T10:26:59.122Z,27.21
2022-09-06T10:29:37.729Z,27.70
2022-09-06T10:32:34.767Z,27.42
2022-09-06T10:35:24.768Z,27.32
2022-09-06T10:38:15.872Z,27.88
2022-09-06T10:41:33.841Z,27.85
2022-09-06T10:44:27.727Z,27.89
2022-09-06T10:47:10.434Z,27.47
2022-09-06T10:49:41.001Z,27.55
2022-09-06T10:52:12.806Z,27.83
2022-09-06T10:54:42.280Z,27.82
2022-09-06T11:00:13.639Z,28.20
2022-09-06T11:05:56.498Z,28.27
2022-09-06T11:08:57.718Z,28.53
2022-09-06T11:11:46.301Z,28.28
2022-09-06T11:14:15.590Z,28.35
2022-09-06T11:16:59.328Z,28.13
2022-09-06T11:19:44.433Z,27.70
2022-09-06T11:22:50.829Z,27.63
2022-09-06T11:25:31.944Z,27.39
2022-09-06T11:28:04.836Z,27.55
2022-09-06T11:30:32.455Z,27.48
2022-09-06T11:33:28.150Z,27.79
2022-09-06T11:36:48.755Z,27.61
2022-09-06T11:42:41.774Z,27.33
2022-09-06T11:45:08.646Z,27.19
2022-09-06T11:47:37.960Z,27.14
2022-09-06T11:50:29.059Z,27.25
2022-09-06T11:53:02.386Z,27.03
2022-09-06T11:56:04.717Z,27.21
2022-09-06T11:58:51.574Z,26.98
2022-09-06T12:01:20.823Z,27.23
2022-09-06T12:06:43.892Z,26.83
2022-09-06T12:09:38.599Z,27.16
2022-09-06T12:12:06.880Z,27.12
2022-09-06T12:14:41.200Z,27.48
2022-09-06T12:17:09.064Z,27.70
2022-09-06T12:19:44.483Z,27.54
2022-09-06T12:22:29.944Z,27.67
2022-09-06T12:25:02.377Z,27.63
2022-09-06T12:27:51.028Z,27.66
2022-09-06T12:30:43.501Z,27.68
2022-09-06T12:33:26.177Z,27.71
2022-09-06T12:36:17.548Z,27.75
2022-09-06T12:39:12.255Z,27.74
2022-09-06T12:41:48.866Z,28.11
2022-09-06T12:44:18.124Z,27.95
2022-09-06T12:46:49.860Z,27.89
2022-09-06T12:49:22.463Z,27.89
2022-09-06T12:51:50.174Z,27.64
2022-09-06T12:54:26.883Z,27.71
2022-09-06T12:57:11.092Z,27.91
2022-09-06T12:59:38.079Z,28.05
2022-09-06T13:02:11.685Z,28.23
2022-09-06T13:04:47.245Z,28.45
2022-09-06T13:07:18.208Z,28.77
2022-09-06T13:09:49.226Z,28.96
2022-09-06T13:12:37.407Z,28.92
2022-09-06T13:15:17.303Z,29.29
2022-09-06T13:17:44.280Z,29.49
2022-09-06T13:20:31.757Z,29.21
2022-09-06T13:23:19.771Z,29.48
2022-09-06T13:25:53.088Z,29.82
2022-09-06T13:28:34.713Z,29.94
2022-09-06T13:31:17.124Z,29.49
2022-09-06T13:33:46.331Z,29.23
2022-09-06T13:36:23.500Z,29.62
2022-09-06T13:38:50.869Z,29.31
2022-09-06T13:41:27.121Z,29.27
2022-09-06T13:44:10.420Z,29.63
2022-09-06T13:46:38.361Z,29.21
2022-09-06T13:49:06.107Z,29.21
2022-09-06T13:51:34.191Z,29.44
2022-09-06T13:54:15.919Z,29.34
2022-09-06T13:56:46.092Z,29.32
2022-09-06T13:59:13.233Z,28.87
2022-09-06T14:01:43.781Z,29.00
2022-09-06T14:04:19.644Z,28.57
2022-09-06T14:06:47.716Z,29.10
2022-09-06T14:09:15.005Z,28.68
2022-09-06T14:11:47.998Z,28.89
2022-09-06T14:14:17.502Z,28.97
2022-09-06T14:16:47.041Z,28.84
2022-09-06T14:19:15.284Z,29.45
2022-09-06T14:21:42.419Z,29.49
2022-09-06T14:24:09.750Z,29.10
2022-09-06T14:26:38.552Z,29.55
2022-09-06T14:29:05.916Z,29.03
2022-09-06T14:31:33.171Z,28.65
2022-09-06T14:34:02.044Z,28.55
2022-09-06T14:36:31.493Z,27.86
2022-09-06T14:39:00.221Z,28.11
2022-09-06T14:41:28.091Z,27.73
2022-09-06T14:43:58.048Z,27.65
2022-09-06T14:46:27.208Z,27.72
2022-09-06T14:49:07.543Z,27.20
2022-09-06T14:51:37.041Z,27.40
2022-09-06T14:54:09.314Z,27.18
2022-09-06T14:56:38.169Z,27.13
2022-09-06T14:59:05.280Z,27.08
2022-09-06T15:01:38.041Z,26.94
2022-09-06T15:04:09.505Z,27.12
2022-09-06T15:06:40.138Z,27.31
2022-09-06T15:09:08.237Z,27.59
2022-09-06T15:11:39.512Z,27.59
2022-09-06T15:14:13.064Z,27.69
2022-09-06T15:16:40.353Z,27.86
2022-09-06T15:19:10.077Z,27.98
2022-09-06T15:21:37.448Z,28.31
2022-09-06T15:24:11.052Z,28.09
2022-09-06T15:26:39.812Z,28.03
2022-09-06T15:29:07.656Z,28.04
2022-09-06T15:31:34.916Z,27.59
2022-09-06T15:34:02.871Z,27.56
2022-09-06T15:36:30.366Z,27.16
2022-09-06T15:39:03.560Z,26.80
2022-09-06T15:41:35.738Z,26.96
2022-09-06T15:44:10.597Z,26.60
2022-09-06T15:46:43.804Z,26.82
2022-09-06T15:49:16.907Z,26.72
2022-09-06T15:51:45.331Z,26.13
2022-09-06T15:54:14.383Z,25.79
2022-09-06T15:56:42.813Z,25.93
2022-09-06T15:59:11.833Z,26.13
2022-09-06T16:01:39.220Z,26.21
2022-09-06T16:04:06.951Z,26.17
2022-09-06T16:06:38.463Z,25.87
2022-09-06T16:09:14.577Z,25.45
2022-09-06T16:11:42.366Z,25.58
2022-09-06T16:14:13.168Z,26.29
2022-09-06T16:16:41.695Z,26.61
2022-09-06T16:19:09.920Z,27.07
2022-09-06T16:21:40.957Z,26.83
2022-09-06T16:24:13.029Z,26.89
2022-09-06T16:26:43.766Z,27.25
2022-09-06T16:29:13.828Z,27.30
2022-09-06T16:31:41.291Z,27.32
2022-09-06T16:34:10.348Z,26.99
2022-09-06T16:36:37.798Z,26.63
2022-09-06T16:39:05.947Z,26.80
2022-09-06T16:41:44.305Z,26.94
2022-09-06T16:44:16.639Z,26.68
2022-09-06T16:46:49.558Z,26.83
2022-09-06T16:49:19.108Z,26.69
2022-09-06T16:51:48.535Z,26.79
2022-09-06T16:54:18.265Z,26.49
2022-09-06T16:56:45.495Z,26.50
2022-09-06T16:59:15.113Z,26.26
2022-09-06T17:01:42.446Z,26.30
2022-09-06T17:04:09.997Z,26.71
2022-09-06T17:06:44.415Z,26.75
2022-09-06T17:09:14.433Z,26.36
2022-09-06T17:11:41.490Z,26.14
2022-09-06T17:14:08.778Z,26.04
2022-09-06T17:16:54.735Z,26.28
2022-09-06T17:19:22.302Z,26.20
2022-09-06T17:21:49.291Z,26.18
2022-09-06T17:24:16.615Z,25.72
2022-09-06T17:26:43.605Z,25.12
2022-09-06T17:29:10.863Z,25.38
2022-09-06T17:31:38.869Z,25.73
2022-09-06T17:34:07.044Z,25.55
2022-09-06T17:36:35.745Z,25.16
2022-09-06T17:39:10.009Z,25.36
2022-09-06T17:41:40.471Z,25.33
2022-09-06T17:44:13.059Z,25.19
2022-09-06T17:46:57.009Z,25.22
2022-09-06T17:49:28.888Z,25.14
2022-09-06T17:51:57.091Z,25.24
2022-09-06T17:54:24.161Z,25.24
2022-09-06T17:56:51.400Z,24.91
2022-09-06T17:59:18.591Z,25.25
2022-09-06T18:01:46.098Z,24.23
2022-09-06T18:04:14.568Z,24.59
2022-09-06T18:06:43.265Z,24.63
2022-09-06T18:09:15.863Z,24.70
2022-09-06T18:11:45.966Z,24.78
2022-09-06T18:14:18.319Z,24.48
2022-09-06T18:16:47.228Z,24.46
2022-09-06T18:19:15.880Z,24.30
2022-09-06T18:21:43.305Z,24.26
2022-09-06T18:24:10.977Z,24.29
2022-09-06T18:26:38.231Z,24.18
2022-09-06T18:29:12.002Z,23.66
2022-09-06T18:31:39.744Z,23.77
2022-09-06T18:34:08.752Z,23.13
2022-09-06T18:36:36.746Z,22.96
2022-09-06T18:39:05.022Z,22.94
2022-09-06T18:41:52.331Z,23.17
2022-09-06T18:44:19.829Z,23.14
2022-09-06T18:46:47.911Z,22.59
2022-09-06T18:49:16.075Z,22.44
2022-09-06T18:51:44.642Z,22.20
2022-09-06T18:54:11.616Z,22.23
2022-09-06T18:56:38.748Z,22.80
2022-09-06T18:59:07.083Z,22.51
2022-09-06T19:01:35.243Z,22.77
2022-09-06T19:04:05.482Z,22.37
2022-09-06T19:06:34.744Z,22.46
2022-09-06T19:09:05.969Z,22.73
2022-09-06T19:11:33.668Z,23.33
2022-09-06T19:14:01.118Z,23.05
2022-09-06T19:16:29.883Z,22.35
2022-09-06T19:19:02.079Z,22.19
2022-09-06T19:21:29.609Z,22.18
2022-09-06T19:24:03.965Z,22.94
2022-09-06T19:26:35.591Z,22.16
2022-09-06T19:29:11.057Z,22.72
2022-09-06T19:31:39.076Z,21.90
2022-09-06T19:34:07.349Z,21.91
2022-09-06T19:36:34.632Z,22.50
2022-09-06T19:39:06.209Z,22.87
2022-09-06T19:41:38.009Z,21.64
2022-09-06T19:44:08.642Z,21.53
2022-09-06T19:46:37.307Z,21.62
2022-09-06T19:49:08.247Z,21.70
2022-09-06T19:51:36.885Z,22.02
2022-09-06T19:54:04.559Z,22.56
2022-09-06T19:56:36.491Z,22.52
2022-09-06T19:59:08.547Z,22.57
2022-09-06T20:01:38.050Z,22.52
2022-09-06T20:04:08.468Z,21.52
2022-09-06T20:06:36.176Z,21.19
2022-09-06T20:09:06.401Z,21.52
2022-09-06T20:11:36.060Z,22.15
2022-09-06T20:14:03.052Z,22.40
2022-09-06T20:16:30.943Z,22.18
2022-09-06T20:18:59.331Z,21.03
2022-09-06T20:21:30.874Z,21.38
2022-09-06T20:23:59.650Z,21.25
2022-09-06T20:26:30.470Z,22.24
2022-09-06T20:29:00.246Z,22.63
2022-09-06T20:31:29.765Z,22.83
2022-09-06T20:33:59.242Z,21.63
2022-09-06T20:36:26.528Z,21.33
2022-09-06T20:38:53.513Z,21.37
2022-09-06T20:41:23.755Z,22.15
2022-09-06T20:43:53.753Z,22.55
2022-09-06T20:46:23.936Z,22.74
2022-09-06T20:48:52.145Z,22.65
2022-09-06T20:51:24.065Z,22.50
2022-09-06T20:53:59.928Z,22.15
2022-09-06T20:56:39.322Z,22.08
2022-09-06T20:59:13.009Z,21.81
2022-09-06T21:01:44.038Z,21.69
2022-09-06T21:04:14.007Z,21.83
2022-09-06T21:06:41.248Z,21.99
2022-09-06T21:09:12.203Z,21.89
2022-09-06T21:11:40.095Z,22.12
2022-09-06T21:14:07.826Z,22.13
2022-09-06T21:16:35.067Z,22.11
2022-09-06T21:19:05.557Z,22.03
2022-09-06T21:21:34.790Z,22.29
2022-09-06T21:24:04.426Z,22.77
2022-09-06T21:26:32.112Z,23.08
2022-09-06T21:28:59.370Z,23.35
2022-09-06T21:31:32.575Z,23.61
2022-09-06T21:34:15.680Z,23.54
2022-09-06T21:36:43.812Z,24.12
2022-09-06T21:39:12.713Z,24.12
2022-09-06T21:41:42.411Z,23.80
2022-09-06T21:44:10.487Z,23.70
2022-09-06T21:46:39.219Z,23.06
2022-09-06T21:49:10.461Z,23.22
2022-09-06T21:51:38.149Z,22.88
2022-09-06T21:54:06.114Z,22.24
2022-09-06T21:56:38.308Z,22.58
2022-09-06T21:59:07.196Z,22.66
2022-09-06T22:01:36.979Z,22.14
2022-09-06T22:04:04.677Z,21.83
2022-09-06T22:06:33.447Z,21.66
2022-09-06T22:09:04.403Z,21.63
2022-09-06T22:11:34.118Z,21.73
2022-09-06T22:14:04.746Z,22.03
2022-09-06T22:16:34.781Z,21.34
2022-09-06T22:19:04.842Z,22.47
2022-09-06T22:21:32.773Z,22.77
2022-09-06T22:24:03.711Z,22.76
2022-09-06T22:26:33.703Z,22.96
2022-09-06T22:29:04.935Z,23.20
2022-09-06T22:31:34.006Z,23.23
2022-09-06T22:34:01.828Z,23.27
2022-09-06T22:36:29.153Z,23.27
2022-09-06T22:38:57.848Z,23.24
2022-09-06T22:41:31.330Z,23.12
2022-09-06T22:44:02.617Z,23.25
2022-09-06T22:46:29.737Z,23.23
2022-09-06T22:48:57.293Z,23.23
2022-09-06T22:51:24.263Z,23.03
2022-09-06T22:53:51.419Z,23.08
2022-09-06T22:56:18.889Z,23.21
2022-09-06T22:58:45.867Z,23.20
2022-09-06T23:01:16.262Z,23.00
2022-09-06T23:03:44.217Z,23.03
2022-09-06T23:06:11.762Z,22.97
2022-09-06T23:08:41.043Z,23.11
2022-09-06T23:11:18.721Z,23.03
2022-09-06T23:13:47.003Z,22.52
2022-09-06T23:16:19.438Z,22.69
2022-09-06T23:18:47.481Z,22.81
2022-09-06T23:21:18.430Z,22.40
2022-09-06T23:23:47.122Z,22.45
2022-09-06T23:26:18.181Z,21.98
2022-09-06T23:28:45.700Z,21.98
2022-09-06T23:31:15.452Z,22.06
2022-09-06T23:33:42.800Z,22.24
2022-09-06T23:36:14.986Z,22.59
2022-09-06T23:38:42.747Z,22.37
2022-09-06T23:41:10.589Z,22.50
2022-09-06T23:43:39.327Z,22.55
2022-09-06T23:46:07.428Z,22.44
2022-09-06T23:48:35.182Z,22.22
2022-09-06T23:51:03.040Z,22.14
2022-09-06T23:53:31.904Z,22.09
2022-09-06T23:55:59.048Z,21.90
2022-09-06T23:58:26.452Z,21.52
